sensor_id;sensor_type;location;lat;lon;timestamp;P1;durP1;ratioP1;P2;durP2;ratioP2
18647;SDS011;9453;50.294;18.644;2024-01-10T05:03:28;126.23;;;38.00;;
18647;SDS011;9453;50.294;18.644;2024-01-10T05:05:55;109.00;;;32.57;;
18647;SDS011;9453;50.294;18.644;2024-01-10T05:08:22;101.47;;;32.60;;
18647;SDS011;9453;50.294;18.644;2024-01-10T05:10:49;88.23;;;29.73;;
18647;SDS011;9453;50.294;18.644;2024-01-10T05:13:16;94.97;;;29.40;;
18647;SDS011;9453;50.294;18.644;2024-01-10T05:15:43;120.80;;;33.23;;
18647;SDS011;9453;50.294;18.644;2024-01-10T05:18:10;123.10;;;36.07;;
18647;SDS011;9453;50.294;18.644;2024-01-10T05:20:38;120.30;;;38.27;;
18647;SDS011;9453;50.294;18.644;2024-01-10T05:23:05;115.10;;;39.50;;
18647;SDS011;9453;50.294;18.644;2024-01-10T05:25:32;140.43;;;44.40;;
18647;SDS011;9453;50.294;18.644;2024-01-10T05:27:59;115.90;;;39.03;;
18647;SDS011;9453;50.294;18.644;2024-01-10T05:30:26;123.47;;;36.90;;
18647;SDS011;9453;50.294;18.644;2024-01-10T05:32:53;126.43;;;36.77;;
18647;SDS011;9453;50.294;18.644;2024-01-10T05:35:20;125.57;;;38.07;;
18647;SDS011;9453;50.294;18.644;2024-01-10T05:37:49;140.43;;;40.43;;
18647;SDS011;9453;50.294;18.644;2024-01-10T05:40:16;117.63;;;40.00;;
18647;SDS011;9453;50.294;18.644;2024-01-10T05:42:43;125.83;;;37.40;;
18647;SDS011;9453;50.294;18.644;2024-01-10T05:45:10;132.90;;;40.90;;
18647;SDS011;9453;50.294;18.644;2024-01-10T05:47:37;130.07;;;41.43;;
18647;SDS011;9453;50.294;18.644;2024-01-10T05:50:05;121.13;;;37.17;;
18647;SDS011;9453;50.294;18.644;2024-01-10T05:52:33;153.50;;;43.00;;
18647;SDS011;9453;50.294;18.644;2024-01-10T05:55:01;125.60;;;36.73;;
18647;SDS011;9453;50.294;18.644;2024-01-10T05:57:28;114.50;;;36.97;;
18647;SDS011;9453;50.294;18.644;2024-01-10T05:59:57;125.87;;;34.80;;
18647;SDS011;9453;50.294;18.644;2024-01-10T06:02:24;155.40;;;42.50;;
18647;SDS011;9453;50.294;18.644;2024-01-10T06:04:52;135.47;;;40.90;;
18647;SDS011;9453;50.294;18.644;2024-01-10T06:07:19;115.00;;;37.47;;
18647;SDS011;9453;50.294;18.644;2024-01-10T06:09:46;129.23;;;41.40;;
18647;SDS011;9453;50.294;18.644;2024-01-10T06:12:15;132.63;;;41.13;;
18647;SDS011;9453;50.294;18.644;2024-01-10T06:14:42;119.77;;;40.03;;
18647;SDS011;9453;50.294;18.644;2024-01-10T06:17:09;124.33;;;41.00;;
18647;SDS011;9453;50.294;18.644;2024-01-10T06:19:36;136.70;;;39.13;;
18647;SDS011;9453;50.294;18.644;2024-01-10T06:22:04;120.80;;;39.83;;
18647;SDS011;9453;50.294;18.644;2024-01-10T06:24:31;146.27;;;43.80;;
18647;SDS011;9453;50.294;18.644;2024-01-10T06:26:58;123.80;;;40.60;;
18647;SDS011;9453;50.294;18.644;2024-01-10T06:29:26;119.83;;;36.50;;
18647;SDS011;9453;50.294;18.644;2024-01-10T06:31:53;114.00;;;35.97;;
18647;SDS011;9453;50.294;18.644;2024-01-10T06:34:21;139.27;;;40.87;;
18647;SDS011;9453;50.294;18.644;2024-01-10T06:36:48;135.10;;;38.73;;
18647;SDS011;9453;50.294;18.644;2024-01-10T06:39:15;129.77;;;40.27;;
18647;SDS011;9453;50.294;18.644;2024-01-10T06:41:45;111.43;;;34.77;;
18647;SDS011;9453;50.294;18.644;2024-01-10T06:44:12;124.73;;;39.30;;
18647;SDS011;9453;50.294;18.644;2024-01-10T06:46:41;112.40;;;38.33;;
18647;SDS011;9453;50.294;18.644;2024-01-10T06:49:07;116.90;;;35.80;;
18647;SDS011;9453;50.294;18.644;2024-01-10T06:51:34;132.07;;;35.63;;
18647;SDS011;9453;50.294;18.644;2024-01-10T06:54:02;116.87;;;37.17;;
18647;SDS011;9453;50.294;18.644;2024-01-10T06:56:29;105.90;;;37.23;;
18647;SDS011;9453;50.294;18.644;2024-01-10T06:58:56;132.97;;;38.87;;
18647;SDS011;9453;50.294;18.644;2024-01-10T07:01:23;145.13;;;43.03;;
18647;SDS011;9453;50.294;18.644;2024-01-10T07:03:51;125.03;;;40.47;;
18647;SDS011;9453;50.294;18.644;2024-01-10T07:06:19;127.80;;;42.10;;
18647;SDS011;9453;50.294;18.644;2024-01-10T07:08:47;134.90;;;43.07;;
18647;SDS011;9453;50.294;18.644;2024-01-10T07:11:15;132.07;;;43.43;;
18647;SDS011;9453;50.294;18.644;2024-01-10T07:13:42;135.83;;;42.70;;
18647;SDS011;9453;50.294;18.644;2024-01-10T07:16:09;137.27;;;44.27;;
18647;SDS011;9453;50.294;18.644;2024-01-10T07:18:36;122.57;;;43.23;;
18647;SDS011;9453;50.294;18.644;2024-01-10T07:21:05;148.20;;;43.40;;
18647;SDS011;9453;50.294;18.644;2024-01-10T07:23:35;137.23;;;43.37;;
18647;SDS011;9453;50.294;18.644;2024-01-10T07:26:03;147.07;;;44.23;;
18647;SDS011;9453;50.294;18.644;2024-01-10T07:28:30;161.43;;;49.43;;
18647;SDS011;9453;50.294;18.644;2024-01-10T07:30:57;175.93;;;50.53;;
18647;SDS011;9453;50.294;18.644;2024-01-10T07:33:25;161.87;;;47.53;;
18647;SDS011;9453;50.294;18.644;2024-01-10T07:35:52;164.53;;;48.87;;
18647;SDS011;9453;50.294;18.644;2024-01-10T07:38:21;141.63;;;46.87;;
18647;SDS011;9453;50.294;18.644;2024-01-10T07:40:48;150.37;;;47.27;;
18647;SDS011;9453;50.294;18.644;2024-01-10T07:43:15;154.33;;;46.43;;
18647;SDS011;9453;50.294;18.644;2024-01-10T07:45:42;141.23;;;47.70;;
18647;SDS011;9453;50.294;18.644;2024-01-10T07:48:09;160.77;;;49.70;;
18647;SDS011;9453;50.294;18.644;2024-01-10T07:50:37;184.33;;;52.53;;
18647;SDS011;9453;50.294;18.644;2024-01-10T07:53:04;164.87;;;53.60;;
18647;SDS011;9453;50.294;18.644;2024-01-10T07:55:32;165.23;;;54.37;;
18647;SDS011;9453;50.294;18.644;2024-01-10T07:57:59;201.70;;;62.77;;
18647;SDS011;9453;50.294;18.644;2024-01-10T08:00:26;194.37;;;58.47;;
18647;SDS011;9453;50.294;18.644;2024-01-10T08:02:55;177.77;;;55.73;;
18647;SDS011;9453;50.294;18.644;2024-01-10T08:05:23;168.60;;;51.80;;
18647;SDS011;9453;50.294;18.644;2024-01-10T08:07:50;190.57;;;55.67;;
18647;SDS011;9453;50.294;18.644;2024-01-10T08:10:17;190.70;;;59.80;;
18647;SDS011;9453;50.294;18.644;2024-01-10T08:12:46;179.83;;;60.13;;
18647;SDS011;9453;50.294;18.644;2024-01-10T08:15:13;190.27;;;59.10;;
18647;SDS011;9453;50.294;18.644;2024-01-10T08:17:40;216.80;;;66.43;;
18647;SDS011;9453;50.294;18.644;2024-01-10T08:20:08;232.90;;;67.80;;
18647;SDS011;9453;50.294;18.644;2024-01-10T08:22:36;199.77;;;64.27;;
18647;SDS011;9453;50.294;18.644;2024-01-10T08:25:03;211.03;;;66.53;;
18647;SDS011;9453;50.294;18.644;2024-01-10T08:27:30;194.33;;;58.43;;
18647;SDS011;9453;50.294;18.644;2024-01-10T08:29:59;198.57;;;62.53;;
18647;SDS011;9453;50.294;18.644;2024-01-10T08:32:29;202.80;;;60.53;;
18647;SDS011;9453;50.294;18.644;2024-01-10T08:34:56;238.57;;;73.87;;
18647;SDS011;9453;50.294;18.644;2024-01-10T08:37:24;229.57;;;72.97;;
18647;SDS011;9453;50.294;18.644;2024-01-10T08:39:51;261.93;;;81.83;;
18647;SDS011;9453;50.294;18.644;2024-01-10T08:42:18;269.40;;;82.60;;
18647;SDS011;9453;50.294;18.644;2024-01-10T08:44:45;228.60;;;72.10;;
18647;SDS011;9453;50.294;18.644;2024-01-10T08:47:13;232.67;;;73.47;;
18647;SDS011;9453;50.294;18.644;2024-01-10T08:49:40;235.63;;;75.77;;
18647;SDS011;9453;50.294;18.644;2024-01-10T08:52:07;236.10;;;72.77;;
18647;SDS011;9453;50.294;18.644;2024-01-10T08:54:34;243.77;;;73.13;;
18647;SDS011;9453;50.294;18.644;2024-01-10T08:57:02;224.00;;;71.90;;
18647;SDS011;9453;50.294;18.644;2024-01-10T08:59:29;236.17;;;72.50;;
18647;SDS011;9453;50.294;18.644;2024-01-10T09:01:56;237.57;;;71.53;;
18647;SDS011;9453;50.294;18.644;2024-01-10T09:04:24;232.13;;;70.73;;
18647;SDS011;9453;50.294;18.644;2024-01-10T09:06:52;223.13;;;73.37;;
18647;SDS011;9453;50.294;18.644;2024-01-10T09:09:18;219.77;;;67.97;;
18647;SDS011;9453;50.294;18.644;2024-01-10T09:11:45;200.20;;;62.43;;
18647;SDS011;9453;50.294;18.644;2024-01-10T09:14:13;200.70;;;63.97;;
18647;SDS011;9453;50.294;18.644;2024-01-10T09:16:40;195.07;;;62.83;;
18647;SDS011;9453;50.294;18.644;2024-01-10T09:19:07;200.30;;;63.60;;
18647;SDS011;9453;50.294;18.644;2024-01-10T09:21:36;232.37;;;67.83;;
18647;SDS011;9453;50.294;18.644;2024-01-10T09:24:03;217.27;;;66.80;;
18647;SDS011;9453;50.294;18.644;2024-01-10T09:26:34;211.17;;;64.57;;
18647;SDS011;9453;50.294;18.644;2024-01-10T09:29:00;221.23;;;69.23;;
18647;SDS011;9453;50.294;18.644;2024-01-10T09:31:27;238.80;;;68.50;;
18647;SDS011;9453;50.294;18.644;2024-01-10T09:33:54;256.03;;;71.23;;
18647;SDS011;9453;50.294;18.644;2024-01-10T09:36:22;218.37;;;67.00;;
18647;SDS011;9453;50.294;18.644;2024-01-10T09:38:50;222.33;;;64.00;;
18647;SDS011;9453;50.294;18.644;2024-01-10T09:41:19;219.10;;;64.40;;
18647;SDS011;9453;50.294;18.644;2024-01-10T09:43:46;232.63;;;70.63;;
18647;SDS011;9453;50.294;18.644;2024-01-10T09:46:13;219.40;;;66.07;;
18647;SDS011;9453;50.294;18.644;2024-01-10T09:48:43;228.67;;;64.27;;
18647;SDS011;9453;50.294;18.644;2024-01-10T09:51:10;182.53;;;57.37;;
18647;SDS011;9453;50.294;18.644;2024-01-10T09:53:37;236.40;;;62.70;;
18647;SDS011;9453;50.294;18.644;2024-01-10T09:56:11;214.47;;;63.70;;
18647;SDS011;9453;50.294;18.644;2024-01-10T09:58:38;214.07;;;62.20;;
18647;SDS011;9453;50.294;18.644;2024-01-10T10:01:07;197.77;;;60.30;;
18647;SDS011;9453;50.294;18.644;2024-01-10T10:03:36;202.00;;;57.07;;
18647;SDS011;9453;50.294;18.644;2024-01-10T10:06:04;216.90;;;62.00;;
18647;SDS011;9453;50.294;18.644;2024-01-10T10:08:31;194.37;;;61.07;;
18647;SDS011;9453;50.294;18.644;2024-01-10T10:10:58;201.07;;;60.67;;
18647;SDS011;9453;50.294;18.644;2024-01-10T10:13:27;196.97;;;59.93;;
18647;SDS011;9453;50.294;18.644;2024-01-10T10:15:58;222.53;;;64.90;;
18647;SDS011;9453;50.294;18.644;2024-01-10T10:18:26;202.27;;;62.73;;
18647;SDS011;9453;50.294;18.644;2024-01-10T10:21:09;212.53;;;59.57;;
18647;SDS011;9453;50.294;18.644;2024-01-10T10:23:36;221.53;;;63.20;;
18647;SDS011;9453;50.294;18.644;2024-01-10T10:26:11;196.80;;;60.43;;
18647;SDS011;9453;50.294;18.644;2024-01-10T10:28:45;209.13;;;64.47;;
18647;SDS011;9453;50.294;18.644;2024-01-10T10:31:12;196.17;;;60.93;;
18647;SDS011;9453;50.294;18.644;2024-01-10T10:33:40;211.80;;;62.47;;
18647;SDS011;9453;50.294;18.644;2024-01-10T10:36:07;203.70;;;62.03;;
18647;SDS011;9453;50.294;18.644;2024-01-10T10:38:34;212.73;;;66.13;;
18647;SDS011;9453;50.294;18.644;2024-01-10T10:41:02;212.13;;;60.70;;
18647;SDS011;9453;50.294;18.644;2024-01-10T10:43:34;210.90;;;66.30;;
18647;SDS011;9453;50.294;18.644;2024-01-10T10:46:03;212.93;;;63.00;;
18647;SDS011;9453;50.294;18.644;2024-01-10T10:48:32;229.70;;;64.70;;
18647;SDS011;9453;50.294;18.644;2024-01-10T10:51:03;200.17;;;63.80;;
18647;SDS011;9453;50.294;18.644;2024-01-10T10:53:32;216.83;;;66.00;;
18647;SDS011;9453;50.294;18.644;2024-01-10T10:56:02;221.60;;;65.70;;
18647;SDS011;9453;50.294;18.644;2024-01-10T10:58:31;232.60;;;71.87;;
18647;SDS011;9453;50.294;18.644;2024-01-10T11:00:59;249.47;;;74.13;;
18647;SDS011;9453;50.294;18.644;2024-01-10T11:03:29;228.97;;;67.80;;
18647;SDS011;9453;50.294;18.644;2024-01-10T11:05:57;224.50;;;68.93;;
18647;SDS011;9453;50.294;18.644;2024-01-10T11:08:27;225.80;;;68.17;;
18647;SDS011;9453;50.294;18.644;2024-01-10T11:10:58;204.77;;;64.60;;
18647;SDS011;9453;50.294;18.644;2024-01-10T11:13:27;224.17;;;67.83;;
18647;SDS011;9453;50.294;18.644;2024-01-10T11:16:10;216.63;;;71.17;;
18647;SDS011;9453;50.294;18.644;2024-01-10T11:19:09;213.67;;;67.30;;
18647;SDS011;9453;50.294;18.644;2024-01-10T11:22:00;205.90;;;63.50;;
18647;SDS011;9453;50.294;18.644;2024-01-10T11:24:37;198.90;;;62.53;;
18647;SDS011;9453;50.294;18.644;2024-01-10T11:27:10;205.50;;;61.77;;
18647;SDS011;9453;50.294;18.644;2024-01-10T11:29:41;194.00;;;59.20;;
18647;SDS011;9453;50.294;18.644;2024-01-10T11:32:12;209.00;;;60.90;;
18647;SDS011;9453;50.294;18.644;2024-01-10T11:34:49;163.50;;;57.30;;
18647;SDS011;9453;50.294;18.644;2024-01-10T11:37:20;171.80;;;53.07;;
18647;SDS011;9453;50.294;18.644;2024-01-10T11:39:47;177.70;;;53.93;;
18647;SDS011;9453;50.294;18.644;2024-01-10T11:42:21;158.97;;;48.83;;
18647;SDS011;9453;50.294;18.644;2024-01-10T11:44:49;172.13;;;53.13;;
18647;SDS011;9453;50.294;18.644;2024-01-10T11:47:16;161.07;;;50.33;;
18647;SDS011;9453;50.294;18.644;2024-01-10T11:52:31;160.07;;;47.93;;
18647;SDS011;9453;50.294;18.644;2024-01-10T11:55:00;169.13;;;50.70;;
18647;SDS011;9453;50.294;18.644;2024-01-10T11:57:30;155.60;;;48.70;;
18647;SDS011;9453;50.294;18.644;2024-01-10T11:59:58;158.13;;;49.07;;
18647;SDS011;9453;50.294;18.644;2024-01-10T12:02:26;158.23;;;49.23;;
18647;SDS011;9453;50.294;18.644;2024-01-10T12:04:54;155.30;;;51.77;;
18647;SDS011;9453;50.294;18.644;2024-01-10T12:07:22;160.70;;;47.57;;
18647;SDS011;9453;50.294;18.644;2024-01-10T12:09:50;159.93;;;49.27;;
18647;SDS011;9453;50.294;18.644;2024-01-10T12:12:17;156.80;;;46.70;;
18647;SDS011;9453;50.294;18.644;2024-01-10T12:14:44;155.30;;;51.10;;
18647;SDS011;9453;50.294;18.644;2024-01-10T12:17:11;147.77;;;48.70;;
18647;SDS011;9453;50.294;18.644;2024-01-10T12:19:38;168.97;;;49.33;;
18647;SDS011;9453;50.294;18.644;2024-01-10T12:22:06;139.40;;;46.70;;
18647;SDS011;9453;50.294;18.644;2024-01-10T12:24:34;171.13;;;53.90;;
18647;SDS011;9453;50.294;18.644;2024-01-10T12:27:10;173.50;;;51.13;;
18647;SDS011;9453;50.294;18.644;2024-01-10T12:29:37;164.97;;;51.30;;
18647;SDS011;9453;50.294;18.644;2024-01-10T12:32:05;173.63;;;51.73;;
18647;SDS011;9453;50.294;18.644;2024-01-10T12:34:37;171.33;;;51.77;;
18647;SDS011;9453;50.294;18.644;2024-01-10T12:37:05;158.83;;;51.50;;
18647;SDS011;9453;50.294;18.644;2024-01-10T12:39:32;153.00;;;48.20;;
18647;SDS011;9453;50.294;18.644;2024-01-10T12:42:00;143.60;;;47.40;;
18647;SDS011;9453;50.294;18.644;2024-01-10T12:44:28;161.73;;;48.57;;
18647;SDS011;9453;50.294;18.644;2024-01-10T12:46:56;153.27;;;47.30;;
18647;SDS011;9453;50.294;18.644;2024-01-10T12:49:25;142.17;;;45.83;;
18647;SDS011;9453;50.294;18.644;2024-01-10T12:51:52;170.33;;;53.07;;
18647;SDS011;9453;50.294;18.644;2024-01-10T12:54:19;158.63;;;49.10;;
18647;SDS011;9453;50.294;18.644;2024-01-10T12:56:45;152.10;;;47.73;;
18647;SDS011;9453;50.294;18.644;2024-01-10T12:59:14;162.77;;;48.40;;
18647;SDS011;9453;50.294;18.644;2024-01-10T13:01:41;142.77;;;47.53;;
18647;SDS011;9453;50.294;18.644;2024-01-10T13:04:08;137.77;;;46.17;;
18647;SDS011;9453;50.294;18.644;2024-01-10T13:06:35;149.27;;;44.97;;
18647;SDS011;9453;50.294;18.644;2024-01-10T13:09:02;144.97;;;45.70;;
18647;SDS011;9453;50.294;18.644;2024-01-10T13:11:31;148.57;;;47.20;;
18647;SDS011;9453;50.294;18.644;2024-01-10T13:13:58;145.67;;;47.27;;
18647;SDS011;9453;50.294;18.644;2024-01-10T13:16:27;159.10;;;47.57;;
18647;SDS011;9453;50.294;18.644;2024-01-10T13:18:53;134.87;;;43.10;;
18647;SDS011;9453;50.294;18.644;2024-01-10T13:21:22;126.37;;;42.50;;
18647;SDS011;9453;50.294;18.644;2024-01-10T13:23:49;149.43;;;42.40;;
18647;SDS011;9453;50.294;18.644;2024-01-10T13:26:16;149.53;;;46.27;;
18647;SDS011;9453;50.294;18.644;2024-01-10T13:28:43;149.43;;;46.80;;
18647;SDS011;9453;50.294;18.644;2024-01-10T13:31:10;160.60;;;49.63;;
18647;SDS011;9453;50.294;18.644;2024-01-10T13:33:42;131.33;;;44.83;;
18647;SDS011;9453;50.294;18.644;2024-01-10T13:36:08;149.50;;;47.33;;
18647;SDS011;9453;50.294;18.644;2024-01-10T13:38:35;150.60;;;48.10;;
18647;SDS011;9453;50.294;18.644;2024-01-10T13:41:02;138.93;;;45.43;;
18647;SDS011;9453;50.294;18.644;2024-01-10T13:43:30;148.53;;;45.10;;
18647;SDS011;9453;50.294;18.644;2024-01-10T13:45:57;139.53;;;43.90;;
18647;SDS011;9453;50.294;18.644;2024-01-10T13:48:24;154.60;;;48.43;;
18647;SDS011;9453;50.294;18.644;2024-01-10T13:50:52;135.97;;;44.87;;
18647;SDS011;9453;50.294;18.644;2024-01-10T13:53:19;144.60;;;46.23;;
18647;SDS011;9453;50.294;18.644;2024-01-10T13:55:47;135.23;;;45.57;;
18647;SDS011;9453;50.294;18.644;2024-01-10T13:58:15;135.20;;;44.80;;
18647;SDS011;9453;50.294;18.644;2024-01-10T14:00:43;148.40;;;44.53;;
18647;SDS011;9453;50.294;18.644;2024-01-10T14:03:11;152.40;;;48.27;;
18647;SDS011;9453;50.294;18.644;2024-01-10T14:05:39;166.93;;;52.00;;
18647;SDS011;9453;50.294;18.644;2024-01-10T14:08:07;157.47;;;47.67;;
18647;SDS011;9453;50.294;18.644;2024-01-10T14:10:35;141.23;;;46.97;;
18647;SDS011;9453;50.294;18.644;2024-01-10T14:13:04;151.97;;;48.30;;
18647;SDS011;9453;50.294;18.644;2024-01-10T14:15:31;160.00;;;48.10;;
18647;SDS011;9453;50.294;18.644;2024-01-10T14:17:58;140.00;;;46.20;;
18647;SDS011;9453;50.294;18.644;2024-01-10T14:20:24;150.17;;;48.37;;
18647;SDS011;9453;50.294;18.644;2024-01-10T14:22:52;142.03;;;47.17;;
18647;SDS011;9453;50.294;18.644;2024-01-10T14:25:20;179.70;;;54.23;;
18647;SDS011;9453;50.294;18.644;2024-01-10T14:27:47;203.63;;;61.23;;
18647;SDS011;9453;50.294;18.644;2024-01-10T14:30:14;183.40;;;56.07;;
18647;SDS011;9453;50.294;18.644;2024-01-10T14:32:41;176.10;;;56.07;;
18647;SDS011;9453;50.294;18.644;2024-01-10T14:35:08;185.30;;;56.90;;
18647;SDS011;9453;50.294;18.644;2024-01-10T14:37:35;167.90;;;53.97;;
18647;SDS011;9453;50.294;18.644;2024-01-10T14:40:03;171.70;;;55.87;;
18647;SDS011;9453;50.294;18.644;2024-01-10T14:42:33;164.43;;;53.30;;
18647;SDS011;9453;50.294;18.644;2024-01-10T14:45:00;175.03;;;56.97;;
18647;SDS011;9453;50.294;18.644;2024-01-10T14:47:29;186.90;;;58.90;;
18647;SDS011;9453;50.294;18.644;2024-01-10T14:49:55;171.30;;;59.83;;
18647;SDS011;9453;50.294;18.644;2024-01-10T14:52:23;162.63;;;55.80;;
18647;SDS011;9453;50.294;18.644;2024-01-10T14:54:51;164.27;;;57.60;;
18647;SDS011;9453;50.294;18.644;2024-01-10T14:57:18;185.03;;;55.50;;
18647;SDS011;9453;50.294;18.644;2024-01-10T14:59:46;174.10;;;54.73;;
18647;SDS011;9453;50.294;18.644;2024-01-10T15:02:14;165.70;;;53.03;;
18647;SDS011;9453;50.294;18.644;2024-01-10T15:04:44;165.97;;;54.73;;
18647;SDS011;9453;50.294;18.644;2024-01-10T15:07:11;167.10;;;52.30;;
18647;SDS011;9453;50.294;18.644;2024-01-10T15:09:38;159.17;;;49.77;;
18647;SDS011;9453;50.294;18.644;2024-01-10T15:12:06;142.00;;;48.47;;
18647;SDS011;9453;50.294;18.644;2024-01-10T15:14:33;195.10;;;58.83;;
18647;SDS011;9453;50.294;18.644;2024-01-10T15:17:03;205.83;;;61.43;;
18647;SDS011;9453;50.294;18.644;2024-01-10T15:19:32;204.83;;;63.33;;
18647;SDS011;9453;50.294;18.644;2024-01-10T15:22:01;166.97;;;57.27;;
18647;SDS011;9453;50.294;18.644;2024-01-10T15:24:28;164.97;;;53.77;;
18647;SDS011;9453;50.294;18.644;2024-01-10T15:26:55;239.73;;;80.93;;
18647;SDS011;9453;50.294;18.644;2024-01-10T15:29:26;204.17;;;69.97;;
18647;SDS011;9453;50.294;18.644;2024-01-10T15:31:53;194.77;;;63.27;;
18647;SDS011;9453;50.294;18.644;2024-01-10T15:34:22;195.60;;;62.90;;
18647;SDS011;9453;50.294;18.644;2024-01-10T15:36:50;187.50;;;60.20;;
18647;SDS011;9453;50.294;18.644;2024-01-10T15:39:18;178.20;;;55.80;;
18647;SDS011;9453;50.294;18.644;2024-01-10T15:41:46;196.13;;;61.57;;
18647;SDS011;9453;50.294;18.644;2024-01-10T15:44:14;189.27;;;61.87;;
18647;SDS011;9453;50.294;18.644;2024-01-10T15:46:41;198.27;;;64.63;;
18647;SDS011;9453;50.294;18.644;2024-01-10T15:49:08;207.60;;;65.07;;
18647;SDS011;9453;50.294;18.644;2024-01-10T15:51:37;217.97;;;67.83;;
18647;SDS011;9453;50.294;18.644;2024-01-10T15:54:04;205.27;;;64.40;;
18647;SDS011;9453;50.294;18.644;2024-01-10T15:56:31;208.27;;;64.90;;
18647;SDS011;9453;50.294;18.644;2024-01-10T15:59:03;289.37;;;88.70;;
18647;SDS011;9453;50.294;18.644;2024-01-10T16:01:31;321.70;;;98.13;;
18647;SDS011;9453;50.294;18.644;2024-01-10T16:03:59;290.67;;;91.53;;
18647;SDS011;9453;50.294;18.644;2024-01-10T16:06:26;251.03;;;79.60;;
18647;SDS011;9453;50.294;18.644;2024-01-10T16:08:55;230.80;;;73.00;;
18647;SDS011;9453;50.294;18.644;2024-01-10T16:11:22;207.07;;;66.03;;
18647;SDS011;9453;50.294;18.644;2024-01-10T16:13:49;191.03;;;63.63;;
18647;SDS011;9453;50.294;18.644;2024-01-10T16:16:16;212.70;;;68.07;;
18647;SDS011;9453;50.294;18.644;2024-01-10T16:18:48;194.80;;;64.50;;
18647;SDS011;9453;50.294;18.644;2024-01-10T16:21:15;201.00;;;62.87;;
18647;SDS011;9453;50.294;18.644;2024-01-10T16:23:42;210.60;;;65.03;;
18647;SDS011;9453;50.294;18.644;2024-01-10T16:26:10;197.23;;;66.43;;
18647;SDS011;9453;50.294;18.644;2024-01-10T16:28:37;209.03;;;63.93;;
18647;SDS011;9453;50.294;18.644;2024-01-10T16:31:04;229.80;;;67.77;;
18647;SDS011;9453;50.294;18.644;2024-01-10T16:33:31;215.57;;;68.80;;
18647;SDS011;9453;50.294;18.644;2024-01-10T16:35:58;206.33;;;64.17;;
18647;SDS011;9453;50.294;18.644;2024-01-10T16:38:26;220.37;;;66.00;;
18647;SDS011;9453;50.294;18.644;2024-01-10T16:40:53;191.50;;;61.93;;
18647;SDS011;9453;50.294;18.644;2024-01-10T16:43:22;197.93;;;63.73;;
18647;SDS011;9453;50.294;18.644;2024-01-10T16:45:50;216.07;;;65.63;;
18647;SDS011;9453;50.294;18.644;2024-01-10T16:48:17;206.27;;;65.27;;
18647;SDS011;9453;50.294;18.644;2024-01-10T16:50:44;203.10;;;60.93;;
18647;SDS011;9453;50.294;18.644;2024-01-10T16:53:10;194.23;;;60.37;;
18647;SDS011;9453;50.294;18.644;2024-01-10T16:55:40;196.33;;;59.97;;
18647;SDS011;9453;50.294;18.644;2024-01-10T16:58:07;188.07;;;62.67;;
18647;SDS011;9453;50.294;18.644;2024-01-10T17:00:35;197.33;;;61.93;;
18647;SDS011;9453;50.294;18.644;2024-01-10T17:03:03;204.37;;;63.53;;
18647;SDS011;9453;50.294;18.644;2024-01-10T17:05:30;190.77;;;64.20;;
18647;SDS011;9453;50.294;18.644;2024-01-10T17:07:57;199.83;;;63.23;;
18647;SDS011;9453;50.294;18.644;2024-01-10T17:10:24;206.40;;;66.07;;
18647;SDS011;9453;50.294;18.644;2024-01-10T17:12:51;211.97;;;66.57;;
18647;SDS011;9453;50.294;18.644;2024-01-10T17:15:18;355.70;;;127.95;;
18647;SDS011;9453;50.294;18.644;2024-01-10T17:17:47;298.40;;;98.40;;
18647;SDS011;9453;50.294;18.644;2024-01-10T17:20:14;288.67;;;88.70;;
18647;SDS011;9453;50.294;18.644;2024-01-10T17:22:41;239.93;;;76.33;;
18647;SDS011;9453;50.294;18.644;2024-01-10T17:25:09;243.87;;;72.63;;
18647;SDS011;9453;50.294;18.644;2024-01-10T17:27:36;222.90;;;66.87;;
18647;SDS011;9453;50.294;18.644;2024-01-10T17:30:04;229.60;;;72.87;;
18647;SDS011;9453;50.294;18.644;2024-01-10T17:32:32;248.27;;;75.27;;
18647;SDS011;9453;50.294;18.644;2024-01-10T17:35:00;256.73;;;76.93;;
18647;SDS011;9453;50.294;18.644;2024-01-10T17:37:28;258.97;;;83.33;;
18647;SDS011;9453;50.294;18.644;2024-01-10T17:39:55;256.83;;;81.07;;
18647;SDS011;9453;50.294;18.644;2024-01-10T17:42:22;257.07;;;79.50;;
18647;SDS011;9453;50.294;18.644;2024-01-10T17:44:49;241.83;;;76.60;;
18647;SDS011;9453;50.294;18.644;2024-01-10T17:47:16;232.07;;;75.47;;
18647;SDS011;9453;50.294;18.644;2024-01-10T17:49:43;270.83;;;82.63;;
18647;SDS011;9453;50.294;18.644;2024-01-10T17:52:11;272.73;;;84.80;;
18647;SDS011;9453;50.294;18.644;2024-01-10T17:54:39;257.37;;;79.60;;
18647;SDS011;9453;50.294;18.644;2024-01-10T17:57:06;249.07;;;77.60;;
18647;SDS011;9453;50.294;18.644;2024-01-10T17:59:32;222.30;;;72.60;;
18647;SDS011;9453;50.294;18.644;2024-01-10T18:01:59;226.07;;;73.40;;
18647;SDS011;9453;50.294;18.644;2024-01-10T18:04:26;215.07;;;71.37;;
18647;SDS011;9453;50.294;18.644;2024-01-10T18:06:54;227.83;;;74.43;;
18647;SDS011;9453;50.294;18.644;2024-01-10T18:09:23;245.10;;;77.07;;
18647;SDS011;9453;50.294;18.644;2024-01-10T18:11:50;314.80;;;109.32;;
18647;SDS011;9453;50.294;18.644;2024-01-10T18:14:17;261.07;;;84.23;;
18647;SDS011;9453;50.294;18.644;2024-01-10T18:16:44;272.73;;;81.27;;
18647;SDS011;9453;50.294;18.644;2024-01-10T18:19:11;239.30;;;79.57;;
18647;SDS011;9453;50.294;18.644;2024-01-10T18:21:40;272.17;;;84.47;;
18647;SDS011;9453;50.294;18.644;2024-01-10T18:24:07;299.30;;;94.20;;
18647;SDS011;9453;50.294;18.644;2024-01-10T18:26:35;284.97;;;84.97;;
18647;SDS011;9453;50.294;18.644;2024-01-10T18:29:02;257.23;;;80.70;;
18647;SDS011;9453;50.294;18.644;2024-01-10T18:31:30;268.80;;;80.73;;
18647;SDS011;9453;50.294;18.644;2024-01-10T18:33:57;250.93;;;79.63;;
18647;SDS011;9453;50.294;18.644;2024-01-10T18:36:24;269.83;;;83.57;;
18647;SDS011;9453;50.294;18.644;2024-01-10T18:38:51;289.00;;;86.53;;
18647;SDS011;9453;50.294;18.644;2024-01-10T18:41:18;351.10;;;110.17;;
18647;SDS011;9453;50.294;18.644;2024-01-10T18:43:46;319.53;;;103.27;;
18647;SDS011;9453;50.294;18.644;2024-01-10T18:46:13;340.83;;;103.10;;
18647;SDS011;9453;50.294;18.644;2024-01-10T18:48:40;314.80;;;95.97;;
18647;SDS011;9453;50.294;18.644;2024-01-10T18:51:07;308.97;;;90.87;;
18647;SDS011;9453;50.294;18.644;2024-01-10T18:53:34;297.47;;;91.63;;
18647;SDS011;9453;50.294;18.644;2024-01-10T18:56:01;260.57;;;82.43;;
18647;SDS011;9453;50.294;18.644;2024-01-10T18:58:29;258.13;;;85.10;;
18647;SDS011;9453;50.294;18.644;2024-01-10T19:00:57;276.13;;;88.60;;
18647;SDS011;9453;50.294;18.644;2024-01-10T19:03:24;281.13;;;87.97;;
18647;SDS011;9453;50.294;18.644;2024-01-10T19:05:51;313.03;;;93.10;;
18647;SDS011;9453;50.294;18.644;2024-01-10T19:08:18;349.77;;;96.73;;
18647;SDS011;9453;50.294;18.644;2024-01-10T19:10:45;318.20;;;95.47;;
18647;SDS011;9453;50.294;18.644;2024-01-10T19:13:12;338.80;;;96.90;;
18647;SDS011;9453;50.294;18.644;2024-01-10T19:15:39;332.83;;;95.73;;
18647;SDS011;9453;50.294;18.644;2024-01-10T19:18:07;284.43;;;88.43;;